sensor_id;sensor_type;location;lat;lon;timestamp;P1;durP1;ratioP1;P2;durP2;ratioP2
15693;SDS011;7947;48.834;9.132;2022-09-12T00:01:26;6.03;;;4.60;;
15693;SDS011;7947;48.834;9.132;2022-09-12T00:04:31;5.80;;;4.97;;
15693;SDS011;7947;48.834;9.132;2022-09-12T00:07:37;4.50;;;4.07;;
15693;SDS011;7947;48.834;9.132;2022-09-12T00:10:43;6.72;;;4.50;;
15693;SDS011;7947;48.834;9.132;2022-09-12T00:13:48;4.03;;;3.53;;
15693;SDS011;7947;48.834;9.132;2022-09-12T00:16:56;4.68;;;3.75;;
15693;SDS011;7947;48.834;9.132;2022-09-12T00:20:02;4.95;;;4.25;;
15693;SDS011;7947;48.834;9.132;2022-09-12T00:23:09;5.10;;;4.60;;
15693;SDS011;7947;48.834;9.132;2022-09-12T00:26:15;5.50;;;4.47;;
15693;SDS011;7947;48.834;9.132;2022-09-12T00:29:23;6.32;;;5.65;;
15693;SDS011;7947;48.834;9.132;2022-09-12T00:32:28;4.75;;;4.35;;
15693;SDS011;7947;48.834;9.132;2022-09-12T00:35:39;5.72;;;5.10;;
15693;SDS011;7947;48.834;9.132;2022-09-12T00:38:47;4.60;;;4.10;;
15693;SDS011;7947;48.834;9.132;2022-09-12T00:41:53;10.80;;;4.82;;
15693;SDS011;7947;48.834;9.132;2022-09-12T00:44:58;6.03;;;5.13;;
15693;SDS011;7947;48.834;9.132;2022-09-12T00:48:03;5.40;;;4.65;;
15693;SDS011;7947;48.834;9.132;2022-09-12T00:51:09;5.25;;;4.43;;
15693;SDS011;7947;48.834;9.132;2022-09-12T00:54:18;5.35;;;4.32;;
15693;SDS011;7947;48.834;9.132;2022-09-12T00:57:29;5.88;;;4.50;;
15693;SDS011;7947;48.834;9.132;2022-09-12T01:00:37;5.95;;;5.03;;
15693;SDS011;7947;48.834;9.132;2022-09-12T01:03:42;4.70;;;4.20;;
15693;SDS011;7947;48.834;9.132;2022-09-12T01:06:48;5.50;;;4.75;;
15693;SDS011;7947;48.834;9.132;2022-09-12T01:09:55;4.95;;;4.25;;
15693;SDS011;7947;48.834;9.132;2022-09-12T01:13:02;5.93;;;5.00;;
15693;SDS011;7947;48.834;9.132;2022-09-12T01:16:10;6.22;;;4.47;;
15693;SDS011;7947;48.834;9.132;2022-09-12T01:19:21;5.40;;;4.43;;
15693;SDS011;7947;48.834;9.132;2022-09-12T01:22:48;6.60;;;5.07;;
15693;SDS011;7947;48.834;9.132;2022-09-12T01:26:08;4.72;;;4.22;;
15693;SDS011;7947;48.834;9.132;2022-09-12T01:29:38;5.13;;;4.45;;
15693;SDS011;7947;48.834;9.132;2022-09-12T01:36:33;5.75;;;4.45;;
15693;SDS011;7947;48.834;9.132;2022-09-12T01:39:44;4.82;;;4.07;;
15693;SDS011;7947;48.834;9.132;2022-09-12T01:43:03;4.90;;;4.40;;
15693;SDS011;7947;48.834;9.132;2022-09-12T01:46:22;5.20;;;4.05;;
15693;SDS011;7947;48.834;9.132;2022-09-12T01:49:37;5.28;;;4.50;;
15693;SDS011;7947;48.834;9.132;2022-09-12T01:52:48;5.30;;;4.40;;
15693;SDS011;7947;48.834;9.132;2022-09-12T01:56:00;7.00;;;4.85;;
15693;SDS011;7947;48.834;9.132;2022-09-12T01:59:11;5.30;;;4.40;;
15693;SDS011;7947;48.834;9.132;2022-09-12T02:02:20;4.50;;;4.10;;
15693;SDS011;7947;48.834;9.132;2022-09-12T02:05:30;6.63;;;4.68;;
15693;SDS011;7947;48.834;9.132;2022-09-12T02:08:38;4.88;;;4.35;;
15693;SDS011;7947;48.834;9.132;2022-09-12T02:11:46;6.47;;;4.70;;
15693;SDS011;7947;48.834;9.132;2022-09-12T02:14:55;6.25;;;4.97;;
15693;SDS011;7947;48.834;9.132;2022-09-12T02:18:04;7.63;;;4.82;;
15693;SDS011;7947;48.834;9.132;2022-09-12T02:21:15;7.15;;;4.63;;
15693;SDS011;7947;48.834;9.132;2022-09-12T02:24:24;5.05;;;3.80;;
15693;SDS011;7947;48.834;9.132;2022-09-12T02:27:34;5.10;;;4.20;;
15693;SDS011;7947;48.834;9.132;2022-09-12T02:30:43;5.20;;;4.65;;
15693;SDS011;7947;48.834;9.132;2022-09-12T02:34:00;7.45;;;4.63;;
15693;SDS011;7947;48.834;9.132;2022-09-12T02:37:16;5.38;;;3.80;;
15693;SDS011;7947;48.834;9.132;2022-09-12T02:40:27;5.28;;;4.60;;
15693;SDS011;7947;48.834;9.132;2022-09-12T02:43:33;4.45;;;4.05;;
15693;SDS011;7947;48.834;9.132;2022-09-12T02:46:40;5.07;;;4.07;;
15693;SDS011;7947;48.834;9.132;2022-09-12T02:49:48;4.70;;;3.92;;
15693;SDS011;7947;48.834;9.132;2022-09-12T02:52:54;5.72;;;4.85;;
15693;SDS011;7947;48.834;9.132;2022-09-12T02:56:06;5.05;;;4.22;;
15693;SDS011;7947;48.834;9.132;2022-09-12T02:59:16;4.82;;;4.10;;
15693;SDS011;7947;48.834;9.132;2022-09-12T03:02:25;6.28;;;4.93;;
15693;SDS011;7947;48.834;9.132;2022-09-12T03:05:37;5.57;;;4.75;;
15693;SDS011;7947;48.834;9.132;2022-09-12T03:08:56;5.70;;;5.10;;
15693;SDS011;7947;48.834;9.132;2022-09-12T03:12:08;4.47;;;4.07;;
15693;SDS011;7947;48.834;9.132;2022-09-12T03:15:25;4.40;;;3.88;;
15693;SDS011;7947;48.834;9.132;2022-09-12T03:18:41;4.80;;;4.07;;
15693;SDS011;7947;48.834;9.132;2022-09-12T03:22:01;4.68;;;3.58;;
15693;SDS011;7947;48.834;9.132;2022-09-12T03:25:15;5.05;;;4.32;;
15693;SDS011;7947;48.834;9.132;2022-09-12T03:28:24;6.90;;;5.25;;
15693;SDS011;7947;48.834;9.132;2022-09-12T03:31:30;5.80;;;4.40;;
15693;SDS011;7947;48.834;9.132;2022-09-12T03:34:35;5.75;;;4.85;;
15693;SDS011;7947;48.834;9.132;2022-09-12T03:37:40;7.53;;;4.53;;
15693;SDS011;7947;48.834;9.132;2022-09-12T03:40:48;4.68;;;4.03;;
15693;SDS011;7947;48.834;9.132;2022-09-12T03:43:55;5.13;;;4.63;;
15693;SDS011;7947;48.834;9.132;2022-09-12T03:47:00;4.35;;;3.60;;
15693;SDS011;7947;48.834;9.132;2022-09-12T03:50:11;4.65;;;3.65;;
15693;SDS011;7947;48.834;9.132;2022-09-12T03:53:16;6.15;;;4.43;;
15693;SDS011;7947;48.834;9.132;2022-09-12T03:56:22;4.32;;;3.75;;
15693;SDS011;7947;48.834;9.132;2022-09-12T03:59:27;5.07;;;4.47;;
15693;SDS011;7947;48.834;9.132;2022-09-12T04:02:32;3.30;;;3.00;;
15693;SDS011;7947;48.834;9.132;2022-09-12T04:05:37;6.05;;;3.92;;
15693;SDS011;7947;48.834;9.132;2022-09-12T04:08:42;4.90;;;4.40;;
15693;SDS011;7947;48.834;9.132;2022-09-12T04:11:49;5.68;;;4.10;;
15693;SDS011;7947;48.834;9.132;2022-09-12T04:15:04;6.10;;;4.00;;
15693;SDS011;7947;48.834;9.132;2022-09-12T04:18:10;6.03;;;4.82;;
15693;SDS011;7947;48.834;9.132;2022-09-12T04:21:15;6.07;;;4.65;;
15693;SDS011;7947;48.834;9.132;2022-09-12T04:24:23;4.90;;;4.32;;
15693;SDS011;7947;48.834;9.132;2022-09-12T04:27:29;4.50;;;4.07;;
15693;SDS011;7947;48.834;9.132;2022-09-12T04:30:35;5.57;;;4.53;;
15693;SDS011;7947;48.834;9.132;2022-09-12T04:33:40;5.47;;;4.93;;
15693;SDS011;7947;48.834;9.132;2022-09-12T04:36:45;5.53;;;4.20;;
15693;SDS011;7947;48.834;9.132;2022-09-12T04:39:50;5.80;;;4.60;;
15693;SDS011;7947;48.834;9.132;2022-09-12T04:43:00;4.82;;;4.18;;
15693;SDS011;7947;48.834;9.132;2022-09-12T04:46:05;3.88;;;3.40;;
15693;SDS011;7947;48.834;9.132;2022-09-12T04:49:10;4.65;;;3.83;;
15693;SDS011;7947;48.834;9.132;2022-09-12T04:52:15;5.55;;;4.20;;
15693;SDS011;7947;48.834;9.132;2022-09-12T04:55:20;4.28;;;3.88;;
15693;SDS011;7947;48.834;9.132;2022-09-12T04:58:27;5.40;;;4.25;;
15693;SDS011;7947;48.834;9.132;2022-09-12T05:01:34;4.55;;;4.07;;
15693;SDS011;7947;48.834;9.132;2022-09-12T05:04:39;5.20;;;4.20;;
15693;SDS011;7947;48.834;9.132;2022-09-12T05:07:44;5.00;;;4.35;;
15693;SDS011;7947;48.834;9.132;2022-09-12T05:10:49;4.68;;;4.20;;
15693;SDS011;7947;48.834;9.132;2022-09-12T05:13:55;5.30;;;4.18;;
15693;SDS011;7947;48.834;9.132;2022-09-12T05:17:00;4.80;;;3.97;;
15693;SDS011;7947;48.834;9.132;2022-09-12T05:20:06;5.25;;;4.72;;
15693;SDS011;7947;48.834;9.132;2022-09-12T05:23:14;4.82;;;3.95;;
15693;SDS011;7947;48.834;9.132;2022-09-12T05:26:18;5.95;;;4.60;;
15693;SDS011;7947;48.834;9.132;2022-09-12T05:29:26;5.30;;;4.00;;
15693;SDS011;7947;48.834;9.132;2022-09-12T05:32:30;4.85;;;4.20;;
15693;SDS011;7947;48.834;9.132;2022-09-12T05:35:35;4.78;;;4.07;;
15693;SDS011;7947;48.834;9.132;2022-09-12T05:38:40;6.63;;;4.30;;
15693;SDS011;7947;48.834;9.132;2022-09-12T05:41:47;4.90;;;4.38;;
15693;SDS011;7947;48.834;9.132;2022-09-12T05:44:53;4.68;;;4.28;;
15693;SDS011;7947;48.834;9.132;2022-09-12T05:47:58;4.63;;;4.22;;
15693;SDS011;7947;48.834;9.132;2022-09-12T05:51:07;4.55;;;3.85;;
15693;SDS011;7947;48.834;9.132;2022-09-12T05:54:13;8.07;;;4.72;;
15693;SDS011;7947;48.834;9.132;2022-09-12T05:57:21;6.05;;;4.60;;
15693;SDS011;7947;48.834;9.132;2022-09-12T06:00:29;7.63;;;5.82;;
15693;SDS011;7947;48.834;9.132;2022-09-12T06:03:35;7.85;;;6.22;;
15693;SDS011;7947;48.834;9.132;2022-09-12T06:06:44;9.18;;;6.28;;
15693;SDS011;7947;48.834;9.132;2022-09-12T06:09:50;7.88;;;6.75;;
15693;SDS011;7947;48.834;9.132;2022-09-12T06:12:56;8.10;;;6.10;;
15693;SDS011;7947;48.834;9.132;2022-09-12T06:16:03;6.80;;;5.57;;
15693;SDS011;7947;48.834;9.132;2022-09-12T06:19:12;7.78;;;5.72;;
15693;SDS011;7947;48.834;9.132;2022-09-12T06:22:17;10.25;;;6.68;;
15693;SDS011;7947;48.834;9.132;2022-09-12T06:25:23;8.77;;;6.55;;
15693;SDS011;7947;48.834;9.132;2022-09-12T06:28:28;9.20;;;6.60;;
15693;SDS011;7947;48.834;9.132;2022-09-12T06:31:35;9.93;;;6.82;;
15693;SDS011;7947;48.834;9.132;2022-09-12T06:34:41;7.78;;;6.50;;
15693;SDS011;7947;48.834;9.132;2022-09-12T06:37:49;7.63;;;6.55;;
15693;SDS011;7947;48.834;9.132;2022-09-12T06:40:54;8.50;;;6.35;;
15693;SDS011;7947;48.834;9.132;2022-09-12T06:43:59;8.32;;;6.32;;
15693;SDS011;7947;48.834;9.132;2022-09-12T06:47:06;8.75;;;6.30;;
15693;SDS011;7947;48.834;9.132;2022-09-12T06:50:11;8.10;;;6.82;;
15693;SDS011;7947;48.834;9.132;2022-09-12T06:53:16;8.13;;;6.07;;
15693;SDS011;7947;48.834;9.132;2022-09-12T06:56:22;8.57;;;7.43;;
15693;SDS011;7947;48.834;9.132;2022-09-12T06:59:28;6.85;;;6.15;;
15693;SDS011;7947;48.834;9.132;2022-09-12T07:02:34;8.15;;;6.63;;
15693;SDS011;7947;48.834;9.132;2022-09-12T07:05:40;8.00;;;6.75;;
15693;SDS011;7947;48.834;9.132;2022-09-12T07:08:47;6.40;;;5.75;;
15693;SDS011;7947;48.834;9.132;2022-09-12T07:11:52;6.63;;;5.50;;
15693;SDS011;7947;48.834;9.132;2022-09-12T07:14:57;7.40;;;6.15;;
15693;SDS011;7947;48.834;9.132;2022-09-12T07:18:04;7.03;;;5.80;;
15693;SDS011;7947;48.834;9.132;2022-09-12T07:21:10;6.70;;;5.38;;
15693;SDS011;7947;48.834;9.132;2022-09-12T07:24:16;8.18;;;6.20;;
15693;SDS011;7947;48.834;9.132;2022-09-12T07:27:21;6.47;;;5.20;;
15693;SDS011;7947;48.834;9.132;2022-09-12T07:30:26;6.38;;;5.47;;
15693;SDS011;7947;48.834;9.132;2022-09-12T07:33:32;6.65;;;5.22;;
15693;SDS011;7947;48.834;9.132;2022-09-12T07:36:38;6.93;;;5.65;;
15693;SDS011;7947;48.834;9.132;2022-09-12T07:39:43;7.38;;;5.70;;
15693;SDS011;7947;48.834;9.132;2022-09-12T07:42:48;7.25;;;6.25;;
15693;SDS011;7947;48.834;9.132;2022-09-12T07:45:54;7.00;;;5.90;;
15693;SDS011;7947;48.834;9.132;2022-09-12T07:49:01;6.57;;;5.80;;
15693;SDS011;7947;48.834;9.132;2022-09-12T07:52:06;5.97;;;5.25;;
15693;SDS011;7947;48.834;9.132;2022-09-12T07:55:11;6.57;;;5.35;;
15693;SDS011;7947;48.834;9.132;2022-09-12T07:58:16;6.72;;;5.22;;
15693;SDS011;7947;48.834;9.132;2022-09-12T08:01:21;6.43;;;5.75;;
15693;SDS011;7947;48.834;9.132;2022-09-12T08:04:29;7.10;;;5.75;;
15693;SDS011;7947;48.834;9.132;2022-09-12T08:07:34;7.28;;;5.72;;
15693;SDS011;7947;48.834;9.132;2022-09-12T08:10:39;5.55;;;4.90;;
15693;SDS011;7947;48.834;9.132;2022-09-12T08:13:44;5.53;;;4.93;;
15693;SDS011;7947;48.834;9.132;2022-09-12T08:16:56;6.28;;;5.35;;
15693;SDS011;7947;48.834;9.132;2022-09-12T08:20:03;6.53;;;5.32;;
15693;SDS011;7947;48.834;9.132;2022-09-12T08:23:08;5.55;;;5.00;;
15693;SDS011;7947;48.834;9.132;2022-09-12T08:26:13;6.25;;;4.68;;
15693;SDS011;7947;48.834;9.132;2022-09-12T08:29:18;5.57;;;4.32;;
15693;SDS011;7947;48.834;9.132;2022-09-12T08:32:23;8.70;;;5.15;;
15693;SDS011;7947;48.834;9.132;2022-09-12T08:35:29;4.03;;;3.53;;
15693;SDS011;7947;48.834;9.132;2022-09-12T08:38:35;4.80;;;4.20;;
15693;SDS011;7947;48.834;9.132;2022-09-12T08:41:42;5.07;;;3.70;;
15693;SDS011;7947;48.834;9.132;2022-09-12T08:44:50;4.28;;;3.42;;
15693;SDS011;7947;48.834;9.132;2022-09-12T08:48:08;5.80;;;3.97;;
15693;SDS011;7947;48.834;9.132;2022-09-12T08:51:16;4.88;;;3.38;;
15693;SDS011;7947;48.834;9.132;2022-09-12T08:54:24;3.35;;;2.80;;
15693;SDS011;7947;48.834;9.132;2022-09-12T08:57:34;4.10;;;3.67;;
15693;SDS011;7947;48.834;9.132;2022-09-12T09:00:40;3.67;;;3.30;;
15693;SDS011;7947;48.834;9.132;2022-09-12T09:07:36;2.58;;;2.17;;
15693;SDS011;7947;48.834;9.132;2022-09-12T09:10:58;4.22;;;2.80;;
15693;SDS011;7947;48.834;9.132;2022-09-12T09:14:17;3.13;;;2.08;;
15693;SDS011;7947;48.834;9.132;2022-09-12T09:17:51;3.25;;;2.40;;
15693;SDS011;7947;48.834;9.132;2022-09-12T09:20:59;2.67;;;2.10;;
15693;SDS011;7947;48.834;9.132;2022-09-12T09:24:11;2.25;;;1.98;;
15693;SDS011;7947;48.834;9.132;2022-09-12T09:27:23;3.05;;;1.92;;
15693;SDS011;7947;48.834;9.132;2022-09-12T09:30:42;2.97;;;2.10;;
15693;SDS011;7947;48.834;9.132;2022-09-12T09:33:48;2.20;;;1.65;;
15693;SDS011;7947;48.834;9.132;2022-09-12T09:36:56;2.55;;;1.60;;
15693;SDS011;7947;48.834;9.132;2022-09-12T09:40:11;2.40;;;1.98;;
15693;SDS011;7947;48.834;9.132;2022-09-12T09:43:24;2.00;;;1.80;;
15693;SDS011;7947;48.834;9.132;2022-09-12T09:46:30;1.90;;;1.73;;
15693;SDS011;7947;48.834;9.132;2022-09-12T09:49:37;1.90;;;1.70;;
15693;SDS011;7947;48.834;9.132;2022-09-12T09:52:42;1.55;;;1.45;;
15693;SDS011;7947;48.834;9.132;2022-09-12T09:55:49;1.88;;;1.67;;
15693;SDS011;7947;48.834;9.132;2022-09-12T09:59:06;2.33;;;1.42;;
15693;SDS011;7947;48.834;9.132;2022-09-12T10:02:18;1.48;;;1.30;;
15693;SDS011;7947;48.834;9.132;2022-09-12T10:05:25;1.65;;;1.42;;
15693;SDS011;7947;48.834;9.132;2022-09-12T10:08:31;1.63;;;1.30;;
15693;SDS011;7947;48.834;9.132;2022-09-12T10:11:39;2.13;;;1.48;;
15693;SDS011;7947;48.834;9.132;2022-09-12T10:14:55;2.33;;;1.58;;
15693;SDS011;7947;48.834;9.132;2022-09-12T10:18:01;1.77;;;1.48;;
15693;SDS011;7947;48.834;9.132;2022-09-12T10:24:45;1.48;;;1.38;;
15693;SDS011;7947;48.834;9.132;2022-09-12T10:27:55;1.63;;;1.50;;
15693;SDS011;7947;48.834;9.132;2022-09-12T10:31:04;1.63;;;1.52;;
15693;SDS011;7947;48.834;9.132;2022-09-12T10:34:19;1.83;;;1.52;;
15693;SDS011;7947;48.834;9.132;2022-09-12T10:37:30;1.45;;;1.35;;
15693;SDS011;7947;48.834;9.132;2022-09-12T10:41:02;1.70;;;1.60;;
15693;SDS011;7947;48.834;9.132;2022-09-12T10:44:30;1.40;;;1.30;;
15693;SDS011;7947;48.834;9.132;2022-09-12T10:47:56;1.63;;;1.30;;
15693;SDS011;7947;48.834;9.132;2022-09-12T10:51:25;1.98;;;1.45;;
15693;SDS011;7947;48.834;9.132;2022-09-12T10:54:32;2.40;;;1.10;;
15693;SDS011;7947;48.834;9.132;2022-09-12T10:57:42;1.17;;;1.08;;
15693;SDS011;7947;48.834;9.132;2022-09-12T11:01:02;1.48;;;1.38;;
15693;SDS011;7947;48.834;9.132;2022-09-12T11:04:31;2.25;;;1.15;;
15693;SDS011;7947;48.834;9.132;2022-09-12T11:07:47;1.40;;;1.30;;
15693;SDS011;7947;48.834;9.132;2022-09-12T11:11:01;1.75;;;1.20;;
15693;SDS011;7947;48.834;9.132;2022-09-12T11:14:36;1.63;;;1.27;;
15693;SDS011;7947;48.834;9.132;2022-09-12T11:17:53;1.25;;;1.15;;
15693;SDS011;7947;48.834;9.132;2022-09-12T11:21:08;2.15;;;1.63;;
15693;SDS011;7947;48.834;9.132;2022-09-12T11:24:28;1.48;;;1.20;;
15693;SDS011;7947;48.834;9.132;2022-09-12T11:27:48;1.10;;;1.00;;
15693;SDS011;7947;48.834;9.132;2022-09-12T11:31:10;1.90;;;1.10;;
15693;SDS011;7947;48.834;9.132;2022-09-12T11:34:27;1.30;;;1.20;;
15693;SDS011;7947;48.834;9.132;2022-09-12T11:37:43;0.98;;;0.93;;
15693;SDS011;7947;48.834;9.132;2022-09-12T11:40:57;1.27;;;1.10;;
15693;SDS011;7947;48.834;9.132;2022-09-12T11:44:09;0.95;;;0.93;;
15693;SDS011;7947;48.834;9.132;2022-09-12T11:47:18;1.27;;;1.02;;
15693;SDS011;7947;48.834;9.132;2022-09-12T11:50:29;1.30;;;1.00;;
15693;SDS011;7947;48.834;9.132;2022-09-12T11:53:38;1.30;;;1.20;;
15693;SDS011;7947;48.834;9.132;2022-09-12T11:56:48;1.20;;;1.10;;
15693;SDS011;7947;48.834;9.132;2022-09-12T11:59:57;0.80;;;0.80;;
15693;SDS011;7947;48.834;9.132;2022-09-12T12:03:06;0.90;;;0.90;;
15693;SDS011;7947;48.834;9.132;2022-09-12T12:06:19;1.17;;;1.08;;
15693;SDS011;7947;48.834;9.132;2022-09-12T12:09:27;0.80;;;0.80;;
15693;SDS011;7947;48.834;9.132;2022-09-12T12:12:33;1.92;;;1.00;;
15693;SDS011;7947;48.834;9.132;2022-09-12T12:15:39;0.80;;;0.80;;
15693;SDS011;7947;48.834;9.132;2022-09-12T12:18:52;1.10;;;1.00;;
15693;SDS011;7947;48.834;9.132;2022-09-12T12:22:06;0.80;;;0.80;;
15693;SDS011;7947;48.834;9.132;2022-09-12T12:25:22;0.98;;;0.85;;
15693;SDS011;7947;48.834;9.132;2022-09-12T12:35:37;0.60;;;0.60;;
15693;SDS011;7947;48.834;9.132;2022-09-12T12:38:45;0.80;;;0.70;;
15693;SDS011;7947;48.834;9.132;2022-09-12T12:41:50;0.98;;;0.80;;
15693;SDS011;7947;48.834;9.132;2022-09-12T12:44:55;0.82;;;0.60;;
15693;SDS011;7947;48.834;9.132;2022-09-12T12:48:07;0.88;;;0.60;;
15693;SDS011;7947;48.834;9.132;2022-09-12T12:55:00;0.65;;;0.60;;
15693;SDS011;7947;48.834;9.132;2022-09-12T12:58:07;1.00;;;0.65;;
15693;SDS011;7947;48.834;9.132;2022-09-12T13:01:30;0.80;;;0.75;;
15693;SDS011;7947;48.834;9.132;2022-09-12T13:04:41;0.68;;;0.68;;
15693;SDS011;7947;48.834;9.132;2022-09-12T13:07:52;0.80;;;0.70;;
15693;SDS011;7947;48.834;9.132;2022-09-12T13:11:03;0.75;;;0.60;;
15693;SDS011;7947;48.834;9.132;2022-09-12T13:17:39;0.60;;;0.60;;
15693;SDS011;7947;48.834;9.132;2022-09-12T13:20:47;0.70;;;0.70;;
15693;SDS011;7947;48.834;9.132;2022-09-12T13:24:00;0.60;;;0.60;;
15693;SDS011;7947;48.834;9.132;2022-09-12T13:27:15;0.90;;;0.90;;
15693;SDS011;7947;48.834;9.132;2022-09-12T13:30:22;1.00;;;0.90;;
15693;SDS011;7947;48.834;9.132;2022-09-12T13:33:32;0.63;;;0.63;;
15693;SDS011;7947;48.834;9.132;2022-09-12T13:36:49;0.55;;;0.52;;
15693;SDS011;7947;48.834;9.132;2022-09-12T13:40:14;0.70;;;0.70;;
15693;SDS011;7947;48.834;9.132;2022-09-12T13:43:36;0.88;;;0.88;;
15693;SDS011;7947;48.834;9.132;2022-09-12T13:46:43;0.60;;;0.60;;
15693;SDS011;7947;48.834;9.132;2022-09-12T13:49:49;0.70;;;0.70;;
15693;SDS011;7947;48.834;9.132;2022-09-12T13:52:57;0.55;;;0.55;;
15693;SDS011;7947;48.834;9.132;2022-09-12T13:56:04;0.40;;;0.40;;
15693;SDS011;7947;48.834;9.132;2022-09-12T13:59:11;0.80;;;0.68;;
15693;SDS011;7947;48.834;9.132;2022-09-12T14:02:17;0.77;;;0.75;;
15693;SDS011;7947;48.834;9.132;2022-09-12T14:05:24;0.77;;;0.60;;
15693;SDS011;7947;48.834;9.132;2022-09-12T14:08:28;1.45;;;0.80;;
15693;SDS011;7947;48.834;9.132;2022-09-12T14:11:36;0.90;;;0.60;;
15693;SDS011;7947;48.834;9.132;2022-09-12T14:14:45;0.70;;;0.70;;
15693;SDS011;7947;48.834;9.132;2022-09-12T14:17:53;1.27;;;0.80;;
15693;SDS011;7947;48.834;9.132;2022-09-12T14:21:06;0.90;;;0.80;;
15693;SDS011;7947;48.834;9.132;2022-09-12T14:24:14;0.93;;;0.70;;
15693;SDS011;7947;48.834;9.132;2022-09-12T14:27:22;0.45;;;0.45;;
15693;SDS011;7947;48.834;9.132;2022-09-12T14:30:31;0.80;;;0.65;;
15693;SDS011;7947;48.834;9.132;2022-09-12T14:33:45;1.25;;;0.70;;
15693;SDS011;7947;48.834;9.132;2022-09-12T14:36:51;0.50;;;0.50;;
15693;SDS011;7947;48.834;9.132;2022-09-12T14:39:58;0.82;;;0.57;;
15693;SDS011;7947;48.834;9.132;2022-09-12T14:43:04;1.08;;;0.85;;
15693;SDS011;7947;48.834;9.132;2022-09-12T14:46:15;1.25;;;0.88;;
15693;SDS011;7947;48.834;9.132;2022-09-12T14:49:24;0.47;;;0.47;;
15693;SDS011;7947;48.834;9.132;2022-09-12T14:52:33;0.63;;;0.60;;
15693;SDS011;7947;48.834;9.132;2022-09-12T14:55:41;0.70;;;0.70;;
15693;SDS011;7947;48.834;9.132;2022-09-12T14:58:49;0.60;;;0.40;;
15693;SDS011;7947;48.834;9.132;2022-09-12T15:05:24;0.55;;;0.50;;
15693;SDS011;7947;48.834;9.132;2022-09-12T15:08:30;2.33;;;0.80;;
15693;SDS011;7947;48.834;9.132;2022-09-12T15:11:35;1.65;;;0.70;;
15693;SDS011;7947;48.834;9.132;2022-09-12T15:14:40;0.65;;;0.65;;
15693;SDS011;7947;48.834;9.132;2022-09-12T15:17:46;0.82;;;0.75;;
15693;SDS011;7947;48.834;9.132;2022-09-12T15:20:52;0.60;;;0.60;;
15693;SDS011;7947;48.834;9.132;2022-09-12T15:23:58;0.90;;;0.47;;
15693;SDS011;7947;48.834;9.132;2022-09-12T15:27:04;0.60;;;0.60;;
15693;SDS011;7947;48.834;9.132;2022-09-12T15:30:12;0.57;;;0.57;;
15693;SDS011;7947;48.834;9.132;2022-09-12T15:33:19;0.65;;;0.60;;
15693;SDS011;7947;48.834;9.132;2022-09-12T15:36:26;0.90;;;0.45;;
15693;SDS011;7947;48.834;9.132;2022-09-12T15:39:31;0.75;;;0.70;;
15693;SDS011;7947;48.834;9.132;2022-09-12T15:42:36;0.40;;;0.40;;
15693;SDS011;7947;48.834;9.132;2022-09-12T15:45:41;0.80;;;0.55;;
15693;SDS011;7947;48.834;9.132;2022-09-12T15:48:48;0.70;;;0.60;;
15693;SDS011;7947;48.834;9.132;2022-09-12T15:51:54;0.55;;;0.55;;
15693;SDS011;7947;48.834;9.132;2022-09-12T15:55:00;1.10;;;0.70;;
15693;SDS011;7947;48.834;9.132;2022-09-12T15:58:06;0.40;;;0.40;;
15693;SDS011;7947;48.834;9.132;2022-09-12T16:01:11;1.85;;;0.60;;
15693;SDS011;7947;48.834;9.132;2022-09-12T16:04:19;1.80;;;0.63;;
15693;SDS011;7947;48.834;9.132;2022-09-12T16:07:26;0.87;;;0.77;;
15693;SDS011;7947;48.834;9.132;2022-09-12T16:10:31;1.25;;;0.82;;
15693;SDS011;7947;48.834;9.132;2022-09-12T16:13:36;0.55;;;0.55;;
15693;SDS011;7947;48.834;9.132;2022-09-12T16:16:42;1.23;;;0.68;;
15693;SDS011;7947;48.834;9.132;2022-09-12T16:19:48;0.70;;;0.70;;
15693;SDS011;7947;48.834;9.132;2022-09-12T16:22:54;1.50;;;1.10;;
15693;SDS011;7947;48.834;9.132;2022-09-12T16:25:59;0.60;;;0.60;;
15693;SDS011;7947;48.834;9.132;2022-09-12T16:29:05;0.93;;;0.70;;
15693;SDS011;7947;48.834;9.132;2022-09-12T16:32:10;0.50;;;0.50;;
15693;SDS011;7947;48.834;9.132;2022-09-12T16:35:17;0.70;;;0.70;;
15693;SDS011;7947;48.834;9.132;2022-09-12T16:38:21;0.60;;;0.55;;
15693;SDS011;7947;48.834;9.132;2022-09-12T16:41:27;1.08;;;0.80;;
15693;SDS011;7947;48.834;9.132;2022-09-12T16:44:32;0.70;;;0.70;;
15693;SDS011;7947;48.834;9.132;2022-09-12T16:47:39;0.75;;;0.70;;
15693;SDS011;7947;48.834;9.132;2022-09-12T16:50:50;0.90;;;0.70;;
15693;SDS011;7947;48.834;9.132;2022-09-12T16:53:59;0.95;;;0.77;;
15693;SDS011;7947;48.834;9.132;2022-09-12T16:57:05;1.33;;;0.80;;
15693;SDS011;7947;48.834;9.132;2022-09-12T17:00:10;1.08;;;0.98;;
15693;SDS011;7947;48.834;9.132;2022-09-12T17:03:15;2.58;;;0.80;;
15693;SDS011;7947;48.834;9.132;2022-09-12T17:06:22;0.90;;;0.90;;
15693;SDS011;7947;48.834;9.132;2022-09-12T17:09:27;1.02;;;0.63;;
15693;SDS011;7947;48.834;9.132;2022-09-12T17:12:31;0.77;;;0.70;;
15693;SDS011;7947;48.834;9.132;2022-09-12T17:15:36;0.95;;;0.73;;
15693;SDS011;7947;48.834;9.132;2022-09-12T17:18:41;1.05;;;0.95;;
15693;SDS011;7947;48.834;9.132;2022-09-12T17:21:47;0.82;;;0.80;;
15693;SDS011;7947;48.834;9.132;2022-09-12T17:24:53;0.70;;;0.70;;
15693;SDS011;7947;48.834;9.132;2022-09-12T17:27:57;1.00;;;1.00;;
15693;SDS011;7947;48.834;9.132;2022-09-12T17:31:07;0.90;;;0.85;;
15693;SDS011;7947;48.834;9.132;2022-09-12T17:34:12;1.20;;;1.02;;
15693;SDS011;7947;48.834;9.132;2022-09-12T17:37:20;0.82;;;0.60;;
15693;SDS011;7947;48.834;9.132;2022-09-12T17:40:25;0.95;;;0.85;;
15693;SDS011;7947;48.834;9.132;2022-09-12T17:43:51;1.00;;;0.90;;
15693;SDS011;7947;48.834;9.132;2022-09-12T17:46:57;1.30;;;1.00;;
15693;SDS011;7947;48.834;9.132;2022-09-12T17:50:02;0.75;;;0.75;;
15693;SDS011;7947;48.834;9.132;2022-09-12T17:53:29;1.88;;;0.95;;
15693;SDS011;7947;48.834;9.132;2022-09-12T17:56:34;0.80;;;0.75;;
15693;SDS011;7947;48.834;9.132;2022-09-12T17:59:38;1.10;;;1.00;;
15693;SDS011;7947;48.834;9.132;2022-09-12T18:02:40;1.20;;;0.90;;
15693;SDS011;7947;48.834;9.132;2022-09-12T18:05:44;1.10;;;0.98;;
15693;SDS011;7947;48.834;9.132;2022-09-12T18:08:48;0.90;;;0.70;;
15693;SDS011;7947;48.834;9.132;2022-09-12T18:11:52;1.00;;;0.80;;
15693;SDS011;7947;48.834;9.132;2022-09-12T18:14:55;1.75;;;0.98;;
15693;SDS011;7947;48.834;9.132;2022-09-12T18:17:57;2.15;;;0.90;;
15693;SDS011;7947;48.834;9.132;2022-09-12T18:21:00;1.05;;;0.82;;
15693;SDS011;7947;48.834;9.132;2022-09-12T18:24:05;1.00;;;0.90;;
15693;SDS011;7947;48.834;9.132;2022-09-12T18:27:08;0.93;;;0.80;;
15693;SDS011;7947;48.834;9.132;2022-09-12T18:30:10;1.20;;;1.08;;
15693;SDS011;7947;48.834;9.132;2022-09-12T18:33:22;1.30;;;1.15;;
15693;SDS011;7947;48.834;9.132;2022-09-12T18:36:25;2.20;;;1.30;;
15693;SDS011;7947;48.834;9.132;2022-09-12T18:39:30;1.33;;;1.23;;
15693;SDS011;7947;48.834;9.132;2022-09-12T18:42:32;1.27;;;1.10;;
15693;SDS011;7947;48.834;9.132;2022-09-12T18:45:35;1.40;;;1.30;;
15693;SDS011;7947;48.834;9.132;2022-09-12T18:48:38;1.30;;;1.20;;
15693;SDS011;7947;48.834;9.132;2022-09-12T18:51:41;1.38;;;1.27;;
15693;SDS011;7947;48.834;9.132;2022-09-12T18:54:46;1.25;;;1.00;;
15693;SDS011;7947;48.834;9.132;2022-09-12T18:57:48;1.48;;;1.35;;
15693;SDS011;7947;48.834;9.132;2022-09-12T19:00:51;1.55;;;1.25;;
15693;SDS011;7947;48.834;9.132;2022-09-12T19:03:54;1.77;;;1.40;;
15693;SDS011;7947;48.834;9.132;2022-09-12T19:06:57;1.73;;;1.33;;
15693;SDS011;7947;48.834;9.132;2022-09-12T19:10:03;2.28;;;1.42;;
15693;SDS011;7947;48.834;9.132;2022-09-12T19:13:06;1.52;;;1.30;;
15693;SDS011;7947;48.834;9.132;2022-09-12T19:16:09;1.63;;;1.52;;
15693;SDS011;7947;48.834;9.132;2022-09-12T19:19:13;2.03;;;1.52;;
15693;SDS011;7947;48.834;9.132;2022-09-12T19:22:16;2.28;;;1.60;;
15693;SDS011;7947;48.834;9.132;2022-09-12T19:25:21;1.80;;;1.30;;
15693;SDS011;7947;48.834;9.132;2022-09-12T19:28:23;1.58;;;1.45;;
15693;SDS011;7947;48.834;9.132;2022-09-12T19:31:27;1.48;;;1.38;;
15693;SDS011;7947;48.834;9.132;2022-09-12T19:34:30;2.17;;;1.33;;
15693;SDS011;7947;48.834;9.132;2022-09-12T19:37:33;2.00;;;1.50;;
15693;SDS011;7947;48.834;9.132;2022-09-12T19:40:38;3.53;;;1.80;;